sensor_id;sensor_type;location;lat;lon;timestamp;P1;durP1;ratioP1;P2;durP2;ratioP2
42600;SDS011;28229;48.856;9.088;2023-04-05T00:00:47;7.97;;;6.10;;
42600;SDS011;28229;48.856;9.088;2023-04-05T00:03:13;7.00;;;6.07;;
42600;SDS011;28229;48.856;9.088;2023-04-05T00:05:39;9.40;;;6.87;;
42600;SDS011;28229;48.856;9.088;2023-04-05T00:08:05;8.57;;;6.27;;
42600;SDS011;28229;48.856;9.088;2023-04-05T00:10:38;6.80;;;6.10;;
42600;SDS011;28229;48.856;9.088;2023-04-05T00:13:04;7.67;;;6.00;;
42600;SDS011;28229;48.856;9.088;2023-04-05T00:15:31;8.60;;;6.03;;
42600;SDS011;28229;48.856;9.088;2023-04-05T00:17:57;8.40;;;6.63;;
42600;SDS011;28229;48.856;9.088;2023-04-05T00:20:25;8.80;;;6.37;;
42600;SDS011;28229;48.856;9.088;2023-04-05T00:22:51;7.57;;;6.30;;
42600;SDS011;28229;48.856;9.088;2023-04-05T00:25:19;8.20;;;6.53;;
42600;SDS011;28229;48.856;9.088;2023-04-05T00:27:46;9.57;;;6.57;;
42600;SDS011;28229;48.856;9.088;2023-04-05T00:30:13;8.43;;;6.50;;
42600;SDS011;28229;48.856;9.088;2023-04-05T00:32:49;9.27;;;7.27;;
42600;SDS011;28229;48.856;9.088;2023-04-05T00:35:16;10.77;;;7.40;;
42600;SDS011;28229;48.856;9.088;2023-04-05T00:37:42;10.20;;;7.53;;
42600;SDS011;28229;48.856;9.088;2023-04-05T00:40:09;10.70;;;7.73;;
42600;SDS011;28229;48.856;9.088;2023-04-05T00:42:35;10.53;;;7.93;;
42600;SDS011;28229;48.856;9.088;2023-04-05T00:45:01;10.80;;;8.07;;
42600;SDS011;28229;48.856;9.088;2023-04-05T00:47:28;9.93;;;7.40;;
42600;SDS011;28229;48.856;9.088;2023-04-05T00:49:54;10.63;;;8.27;;
42600;SDS011;28229;48.856;9.088;2023-04-05T00:52:21;8.60;;;7.37;;
42600;SDS011;28229;48.856;9.088;2023-04-05T00:54:48;10.37;;;7.87;;
42600;SDS011;28229;48.856;9.088;2023-04-05T00:57:16;9.67;;;7.20;;
42600;SDS011;28229;48.856;9.088;2023-04-05T00:59:44;12.20;;;8.43;;
42600;SDS011;28229;48.856;9.088;2023-04-05T01:02:12;9.53;;;7.83;;
42600;SDS011;28229;48.856;9.088;2023-04-05T01:04:42;10.93;;;8.40;;
42600;SDS011;28229;48.856;9.088;2023-04-05T01:12:17;10.93;;;8.30;;
42600;SDS011;28229;48.856;9.088;2023-04-05T01:14:46;10.57;;;8.70;;
42600;SDS011;28229;48.856;9.088;2023-04-05T01:17:16;9.80;;;7.60;;
42600;SDS011;28229;48.856;9.088;2023-04-05T01:19:51;10.00;;;7.80;;
42600;SDS011;28229;48.856;9.088;2023-04-05T01:30:45;8.43;;;7.40;;
42600;SDS011;28229;48.856;9.088;2023-04-05T01:33:30;8.47;;;6.80;;
42600;SDS011;28229;48.856;9.088;2023-04-05T01:36:16;9.83;;;7.17;;
42600;SDS011;28229;48.856;9.088;2023-04-05T01:38:53;8.37;;;6.97;;
42600;SDS011;28229;48.856;9.088;2023-04-05T01:41:20;9.80;;;7.63;;
42600;SDS011;28229;48.856;9.088;2023-04-05T01:43:47;9.03;;;7.00;;
42600;SDS011;28229;48.856;9.088;2023-04-05T01:46:13;10.10;;;7.87;;
42600;SDS011;28229;48.856;9.088;2023-04-05T01:48:40;9.33;;;7.57;;
42600;SDS011;28229;48.856;9.088;2023-04-05T01:51:06;9.70;;;7.70;;
42600;SDS011;28229;48.856;9.088;2023-04-05T01:53:33;11.03;;;7.40;;
42600;SDS011;28229;48.856;9.088;2023-04-05T01:56:01;9.27;;;7.10;;
42600;SDS011;28229;48.856;9.088;2023-04-05T01:58:28;8.83;;;7.23;;
42600;SDS011;28229;48.856;9.088;2023-04-05T02:00:54;9.77;;;7.47;;
42600;SDS011;28229;48.856;9.088;2023-04-05T02:03:24;8.57;;;7.17;;
42600;SDS011;28229;48.856;9.088;2023-04-05T02:05:52;10.17;;;7.63;;
42600;SDS011;28229;48.856;9.088;2023-04-05T02:08:18;12.67;;;8.30;;
42600;SDS011;28229;48.856;9.088;2023-04-05T02:10:44;9.60;;;7.43;;
42600;SDS011;28229;48.856;9.088;2023-04-05T02:13:10;8.63;;;7.40;;
42600;SDS011;28229;48.856;9.088;2023-04-05T02:15:39;8.47;;;7.07;;
42600;SDS011;28229;48.856;9.088;2023-04-05T02:18:05;9.67;;;7.67;;
42600;SDS011;28229;48.856;9.088;2023-04-05T02:20:32;10.73;;;7.73;;
42600;SDS011;28229;48.856;9.088;2023-04-05T02:22:59;10.63;;;7.93;;
42600;SDS011;28229;48.856;9.088;2023-04-05T02:25:28;10.57;;;7.90;;
42600;SDS011;28229;48.856;9.088;2023-04-05T02:27:54;10.60;;;7.83;;
42600;SDS011;28229;48.856;9.088;2023-04-05T02:30:20;9.53;;;7.60;;
42600;SDS011;28229;48.856;9.088;2023-04-05T02:32:47;10.63;;;7.47;;
42600;SDS011;28229;48.856;9.088;2023-04-05T02:35:13;9.13;;;7.80;;
42600;SDS011;28229;48.856;9.088;2023-04-05T02:37:41;10.50;;;7.77;;
42600;SDS011;28229;48.856;9.088;2023-04-05T02:40:12;12.90;;;7.83;;
42600;SDS011;28229;48.856;9.088;2023-04-05T02:42:40;9.63;;;7.57;;
42600;SDS011;28229;48.856;9.088;2023-04-05T02:45:06;9.97;;;7.73;;
42600;SDS011;28229;48.856;9.088;2023-04-05T02:47:34;10.80;;;8.80;;
42600;SDS011;28229;48.856;9.088;2023-04-05T02:50:01;11.63;;;8.70;;
42600;SDS011;28229;48.856;9.088;2023-04-05T02:52:31;10.73;;;8.10;;
42600;SDS011;28229;48.856;9.088;2023-04-05T02:54:59;10.50;;;7.70;;
42600;SDS011;28229;48.856;9.088;2023-04-05T02:57:29;9.60;;;8.37;;
42600;SDS011;28229;48.856;9.088;2023-04-05T03:00:03;9.70;;;8.33;;
42600;SDS011;28229;48.856;9.088;2023-04-05T03:02:31;9.70;;;8.30;;
42600;SDS011;28229;48.856;9.088;2023-04-05T03:04:58;11.80;;;8.07;;
42600;SDS011;28229;48.856;9.088;2023-04-05T03:07:30;11.50;;;8.00;;
42600;SDS011;28229;48.856;9.088;2023-04-05T03:09:59;9.93;;;8.03;;
42600;SDS011;28229;48.856;9.088;2023-04-05T03:12:27;9.43;;;7.53;;
42600;SDS011;28229;48.856;9.088;2023-04-05T03:14:53;11.03;;;7.63;;
42600;SDS011;28229;48.856;9.088;2023-04-05T03:17:22;10.30;;;8.10;;
42600;SDS011;28229;48.856;9.088;2023-04-05T03:19:58;11.70;;;8.23;;
42600;SDS011;28229;48.856;9.088;2023-04-05T03:22:25;10.07;;;8.10;;
42600;SDS011;28229;48.856;9.088;2023-04-05T03:24:53;8.77;;;7.87;;
42600;SDS011;28229;48.856;9.088;2023-04-05T03:27:22;12.03;;;7.43;;
42600;SDS011;28229;48.856;9.088;2023-04-05T03:29:57;11.03;;;7.97;;
42600;SDS011;28229;48.856;9.088;2023-04-05T03:32:24;9.13;;;7.13;;
42600;SDS011;28229;48.856;9.088;2023-04-05T03:34:59;11.13;;;7.60;;
42600;SDS011;28229;48.856;9.088;2023-04-05T03:37:25;10.60;;;7.90;;
42600;SDS011;28229;48.856;9.088;2023-04-05T03:40:04;9.57;;;7.23;;
42600;SDS011;28229;48.856;9.088;2023-04-05T03:42:32;10.43;;;7.40;;
42600;SDS011;28229;48.856;9.088;2023-04-05T03:44:58;11.23;;;7.27;;
42600;SDS011;28229;48.856;9.088;2023-04-05T03:47:25;10.63;;;7.10;;
42600;SDS011;28229;48.856;9.088;2023-04-05T03:49:52;10.90;;;7.50;;
42600;SDS011;28229;48.856;9.088;2023-04-05T03:52:18;9.77;;;7.27;;
42600;SDS011;28229;48.856;9.088;2023-04-05T03:54:45;10.03;;;7.53;;
42600;SDS011;28229;48.856;9.088;2023-04-05T03:57:13;10.37;;;7.63;;
42600;SDS011;28229;48.856;9.088;2023-04-05T03:59:42;12.57;;;8.53;;
42600;SDS011;28229;48.856;9.088;2023-04-05T04:02:08;10.27;;;8.20;;
42600;SDS011;28229;48.856;9.088;2023-04-05T04:04:34;14.17;;;8.47;;
42600;SDS011;28229;48.856;9.088;2023-04-05T04:07:00;11.03;;;8.13;;
42600;SDS011;28229;48.856;9.088;2023-04-05T04:09:28;10.60;;;7.90;;
42600;SDS011;28229;48.856;9.088;2023-04-05T04:11:56;11.87;;;8.30;;
42600;SDS011;28229;48.856;9.088;2023-04-05T04:14:23;11.23;;;8.13;;
42600;SDS011;28229;48.856;9.088;2023-04-05T04:17:04;10.83;;;7.33;;
42600;SDS011;28229;48.856;9.088;2023-04-05T04:19:58;12.40;;;7.93;;
42600;SDS011;28229;48.856;9.088;2023-04-05T04:22:55;11.07;;;8.93;;
42600;SDS011;28229;48.856;9.088;2023-04-05T04:25:41;10.67;;;7.63;;
42600;SDS011;28229;48.856;9.088;2023-04-05T04:28:40;13.37;;;8.33;;
42600;SDS011;28229;48.856;9.088;2023-04-05T04:31:34;10.50;;;8.07;;
42600;SDS011;28229;48.856;9.088;2023-04-05T04:34:22;11.40;;;8.43;;
42600;SDS011;28229;48.856;9.088;2023-04-05T04:37:27;12.43;;;8.03;;
42600;SDS011;28229;48.856;9.088;2023-04-05T04:40:15;12.83;;;7.87;;
42600;SDS011;28229;48.856;9.088;2023-04-05T04:42:57;11.27;;;7.50;;
42600;SDS011;28229;48.856;9.088;2023-04-05T04:45:40;11.87;;;9.90;;
42600;SDS011;28229;48.856;9.088;2023-04-05T04:48:27;12.33;;;9.70;;
42600;SDS011;28229;48.856;9.088;2023-04-05T04:51:01;12.87;;;9.77;;
42600;SDS011;28229;48.856;9.088;2023-04-05T04:53:29;14.00;;;10.10;;
42600;SDS011;28229;48.856;9.088;2023-04-05T04:55:55;11.90;;;9.40;;
42600;SDS011;28229;48.856;9.088;2023-04-05T04:58:22;12.93;;;8.77;;
42600;SDS011;28229;48.856;9.088;2023-04-05T05:00:58;10.57;;;8.50;;
42600;SDS011;28229;48.856;9.088;2023-04-05T05:03:24;11.13;;;8.37;;
42600;SDS011;28229;48.856;9.088;2023-04-05T05:05:51;12.77;;;8.73;;
42600;SDS011;28229;48.856;9.088;2023-04-05T05:08:21;10.80;;;8.90;;
42600;SDS011;28229;48.856;9.088;2023-04-05T05:10:50;10.07;;;8.23;;
42600;SDS011;28229;48.856;9.088;2023-04-05T05:13:20;12.23;;;8.63;;
42600;SDS011;28229;48.856;9.088;2023-04-05T05:15:46;12.60;;;8.70;;
42600;SDS011;28229;48.856;9.088;2023-04-05T05:18:13;14.20;;;9.27;;
42600;SDS011;28229;48.856;9.088;2023-04-05T05:20:39;11.67;;;8.63;;
42600;SDS011;28229;48.856;9.088;2023-04-05T05:23:07;11.93;;;8.13;;
42600;SDS011;28229;48.856;9.088;2023-04-05T05:25:33;12.93;;;8.30;;
42600;SDS011;28229;48.856;9.088;2023-04-05T05:28:00;13.27;;;8.53;;
42600;SDS011;28229;48.856;9.088;2023-04-05T05:30:28;12.93;;;8.83;;
42600;SDS011;28229;48.856;9.088;2023-04-05T05:32:54;12.20;;;9.30;;
42600;SDS011;28229;48.856;9.088;2023-04-05T05:35:22;10.57;;;8.63;;
42600;SDS011;28229;48.856;9.088;2023-04-05T05:37:50;15.10;;;9.13;;
42600;SDS011;28229;48.856;9.088;2023-04-05T05:40:17;11.67;;;8.43;;
42600;SDS011;28229;48.856;9.088;2023-04-05T05:42:43;15.33;;;9.33;;
42600;SDS011;28229;48.856;9.088;2023-04-05T05:45:09;14.53;;;8.77;;
42600;SDS011;28229;48.856;9.088;2023-04-05T05:47:36;12.70;;;8.80;;
42600;SDS011;28229;48.856;9.088;2023-04-05T05:50:02;10.40;;;8.13;;
42600;SDS011;28229;48.856;9.088;2023-04-05T05:52:29;13.63;;;8.93;;
42600;SDS011;28229;48.856;9.088;2023-04-05T05:54:56;12.87;;;8.80;;
42600;SDS011;28229;48.856;9.088;2023-04-05T05:57:22;11.13;;;9.40;;
42600;SDS011;28229;48.856;9.088;2023-04-05T05:59:48;11.50;;;8.33;;
42600;SDS011;28229;48.856;9.088;2023-04-05T06:02:14;12.77;;;8.50;;
42600;SDS011;28229;48.856;9.088;2023-04-05T06:04:41;10.50;;;7.97;;
42600;SDS011;28229;48.856;9.088;2023-04-05T06:07:07;10.70;;;8.37;;
42600;SDS011;28229;48.856;9.088;2023-04-05T06:09:33;17.50;;;11.63;;
42600;SDS011;28229;48.856;9.088;2023-04-05T06:12:00;18.17;;;11.60;;
42600;SDS011;28229;48.856;9.088;2023-04-05T06:14:26;14.83;;;9.17;;
42600;SDS011;28229;48.856;9.088;2023-04-05T06:16:54;13.50;;;9.63;;
42600;SDS011;28229;48.856;9.088;2023-04-05T06:19:20;12.00;;;9.00;;
42600;SDS011;28229;48.856;9.088;2023-04-05T06:21:47;12.93;;;8.70;;
42600;SDS011;28229;48.856;9.088;2023-04-05T06:24:13;15.07;;;9.50;;
42600;SDS011;28229;48.856;9.088;2023-04-05T06:26:39;12.00;;;8.77;;
42600;SDS011;28229;48.856;9.088;2023-04-05T06:29:06;13.60;;;8.90;;
42600;SDS011;28229;48.856;9.088;2023-04-05T06:31:33;10.93;;;8.40;;
42600;SDS011;28229;48.856;9.088;2023-04-05T06:34:00;9.77;;;8.20;;
42600;SDS011;28229;48.856;9.088;2023-04-05T06:36:30;12.13;;;8.50;;
42600;SDS011;28229;48.856;9.088;2023-04-05T06:38:59;10.67;;;8.13;;
42600;SDS011;28229;48.856;9.088;2023-04-05T06:41:26;11.23;;;9.00;;
42600;SDS011;28229;48.856;9.088;2023-04-05T06:43:52;13.87;;;9.30;;
42600;SDS011;28229;48.856;9.088;2023-04-05T06:46:18;15.53;;;9.60;;
42600;SDS011;28229;48.856;9.088;2023-04-05T06:48:44;12.03;;;9.00;;
42600;SDS011;28229;48.856;9.088;2023-04-05T06:51:29;11.57;;;9.00;;
42600;SDS011;28229;48.856;9.088;2023-04-05T06:53:56;14.50;;;9.43;;
42600;SDS011;28229;48.856;9.088;2023-04-05T06:56:22;15.10;;;8.57;;
42600;SDS011;28229;48.856;9.088;2023-04-05T06:58:49;12.23;;;8.27;;
42600;SDS011;28229;48.856;9.088;2023-04-05T07:01:15;9.80;;;7.53;;
42600;SDS011;28229;48.856;9.088;2023-04-05T07:03:42;11.50;;;8.20;;
42600;SDS011;28229;48.856;9.088;2023-04-05T07:06:08;10.33;;;7.53;;
42600;SDS011;28229;48.856;9.088;2023-04-05T07:08:34;11.87;;;8.00;;
42600;SDS011;28229;48.856;9.088;2023-04-05T07:11:00;12.43;;;8.00;;
42600;SDS011;28229;48.856;9.088;2023-04-05T07:13:26;10.43;;;7.30;;
42600;SDS011;28229;48.856;9.088;2023-04-05T07:15:59;10.60;;;6.67;;
42600;SDS011;28229;48.856;9.088;2023-04-05T07:18:26;8.10;;;6.77;;
42600;SDS011;28229;48.856;9.088;2023-04-05T07:20:55;8.70;;;6.83;;
42600;SDS011;28229;48.856;9.088;2023-04-05T07:23:26;9.43;;;7.40;;
42600;SDS011;28229;48.856;9.088;2023-04-05T07:25:59;8.93;;;7.10;;
42600;SDS011;28229;48.856;9.088;2023-04-05T07:28:30;8.47;;;6.83;;
42600;SDS011;28229;48.856;9.088;2023-04-05T07:30:57;9.67;;;7.40;;
42600;SDS011;28229;48.856;9.088;2023-04-05T07:33:23;9.50;;;7.30;;
42600;SDS011;28229;48.856;9.088;2023-04-05T07:35:55;8.70;;;6.67;;
42600;SDS011;28229;48.856;9.088;2023-04-05T07:38:22;10.63;;;7.77;;
42600;SDS011;28229;48.856;9.088;2023-04-05T07:40:49;10.90;;;7.67;;
42600;SDS011;28229;48.856;9.088;2023-04-05T07:43:17;11.10;;;7.40;;
42600;SDS011;28229;48.856;9.088;2023-04-05T07:45:43;10.57;;;7.27;;
42600;SDS011;28229;48.856;9.088;2023-04-05T07:48:10;11.37;;;7.97;;
42600;SDS011;28229;48.856;9.088;2023-04-05T07:50:36;10.93;;;8.40;;
42600;SDS011;28229;48.856;9.088;2023-04-05T07:53:05;10.73;;;7.40;;
42600;SDS011;28229;48.856;9.088;2023-04-05T07:55:33;9.50;;;7.27;;
42600;SDS011;28229;48.856;9.088;2023-04-05T07:58:02;9.00;;;7.30;;
42600;SDS011;28229;48.856;9.088;2023-04-05T08:00:28;8.87;;;6.70;;
42600;SDS011;28229;48.856;9.088;2023-04-05T08:02:55;8.00;;;5.90;;
42600;SDS011;28229;48.856;9.088;2023-04-05T08:05:21;7.93;;;6.37;;
42600;SDS011;28229;48.856;9.088;2023-04-05T08:07:47;6.30;;;5.70;;
42600;SDS011;28229;48.856;9.088;2023-04-05T08:10:13;9.50;;;5.60;;
42600;SDS011;28229;48.856;9.088;2023-04-05T08:12:40;9.17;;;6.27;;
42600;SDS011;28229;48.856;9.088;2023-04-05T08:15:06;7.07;;;6.17;;
42600;SDS011;28229;48.856;9.088;2023-04-05T08:17:33;7.90;;;6.00;;
42600;SDS011;28229;48.856;9.088;2023-04-05T08:20:00;8.97;;;5.87;;
42600;SDS011;28229;48.856;9.088;2023-04-05T08:22:28;5.87;;;5.33;;
42600;SDS011;28229;48.856;9.088;2023-04-05T08:24:54;9.20;;;5.67;;
42600;SDS011;28229;48.856;9.088;2023-04-05T08:27:20;8.20;;;5.90;;
42600;SDS011;28229;48.856;9.088;2023-04-05T08:29:46;8.40;;;6.07;;
42600;SDS011;28229;48.856;9.088;2023-04-05T08:32:12;5.47;;;4.97;;
42600;SDS011;28229;48.856;9.088;2023-04-05T08:34:39;6.13;;;4.43;;
42600;SDS011;28229;48.856;9.088;2023-04-05T08:37:05;5.33;;;4.37;;
42600;SDS011;28229;48.856;9.088;2023-04-05T08:39:53;8.20;;;4.70;;
42600;SDS011;28229;48.856;9.088;2023-04-05T08:42:31;6.20;;;4.47;;
42600;SDS011;28229;48.856;9.088;2023-04-05T08:45:02;6.60;;;4.90;;
42600;SDS011;28229;48.856;9.088;2023-04-05T08:47:29;5.13;;;4.50;;
42600;SDS011;28229;48.856;9.088;2023-04-05T08:49:57;5.43;;;4.33;;
42600;SDS011;28229;48.856;9.088;2023-04-05T08:52:24;5.13;;;4.23;;
42600;SDS011;28229;48.856;9.088;2023-04-05T08:54:52;5.03;;;4.53;;
42600;SDS011;28229;48.856;9.088;2023-04-05T08:57:21;4.90;;;4.37;;
42600;SDS011;28229;48.856;9.088;2023-04-05T08:59:54;5.10;;;4.30;;
42600;SDS011;28229;48.856;9.088;2023-04-05T09:02:22;4.73;;;3.77;;
42600;SDS011;28229;48.856;9.088;2023-04-05T09:04:49;5.33;;;4.27;;
42600;SDS011;28229;48.856;9.088;2023-04-05T09:07:16;5.07;;;4.17;;
42600;SDS011;28229;48.856;9.088;2023-04-05T09:09:45;4.53;;;4.10;;
42600;SDS011;28229;48.856;9.088;2023-04-05T09:12:13;4.83;;;4.00;;
42600;SDS011;28229;48.856;9.088;2023-04-05T09:14:40;4.90;;;4.40;;
42600;SDS011;28229;48.856;9.088;2023-04-05T09:17:08;6.23;;;4.40;;
42600;SDS011;28229;48.856;9.088;2023-04-05T09:19:34;5.33;;;4.27;;
42600;SDS011;28229;48.856;9.088;2023-04-05T09:22:02;5.43;;;4.43;;
42600;SDS011;28229;48.856;9.088;2023-04-05T09:24:39;6.33;;;4.33;;
42600;SDS011;28229;48.856;9.088;2023-04-05T09:27:12;5.17;;;4.07;;
42600;SDS011;28229;48.856;9.088;2023-04-05T09:29:39;4.10;;;3.80;;
42600;SDS011;28229;48.856;9.088;2023-04-05T09:32:09;5.47;;;4.30;;
42600;SDS011;28229;48.856;9.088;2023-04-05T09:34:36;5.80;;;3.97;;
42600;SDS011;28229;48.856;9.088;2023-04-05T09:37:11;4.77;;;4.10;;
42600;SDS011;28229;48.856;9.088;2023-04-05T09:39:45;4.93;;;4.40;;
42600;SDS011;28229;48.856;9.088;2023-04-05T09:42:14;6.00;;;4.60;;
42600;SDS011;28229;48.856;9.088;2023-04-05T09:44:48;4.70;;;4.30;;
42600;SDS011;28229;48.856;9.088;2023-04-05T09:47:19;4.73;;;3.97;;
42600;SDS011;28229;48.856;9.088;2023-04-05T09:49:51;4.77;;;4.07;;
42600;SDS011;28229;48.856;9.088;2023-04-05T09:52:18;4.30;;;3.90;;
42600;SDS011;28229;48.856;9.088;2023-04-05T09:54:45;3.97;;;3.57;;
42600;SDS011;28229;48.856;9.088;2023-04-05T09:57:12;4.00;;;3.60;;
42600;SDS011;28229;48.856;9.088;2023-04-05T09:59:40;6.27;;;4.40;;
42600;SDS011;28229;48.856;9.088;2023-04-05T10:02:06;6.10;;;3.93;;
42600;SDS011;28229;48.856;9.088;2023-04-05T10:04:38;4.70;;;4.20;;
42600;SDS011;28229;48.856;9.088;2023-04-05T10:07:11;4.67;;;4.20;;
42600;SDS011;28229;48.856;9.088;2023-04-05T10:09:39;5.93;;;4.00;;
42600;SDS011;28229;48.856;9.088;2023-04-05T10:12:06;5.00;;;4.50;;
42600;SDS011;28229;48.856;9.088;2023-04-05T10:14:34;5.20;;;4.40;;
42600;SDS011;28229;48.856;9.088;2023-04-05T10:17:48;8.30;;;5.93;;
42600;SDS011;28229;48.856;9.088;2023-04-05T10:25:32;7.83;;;5.97;;
42600;SDS011;28229;48.856;9.088;2023-04-05T10:28:05;5.40;;;4.90;;
42600;SDS011;28229;48.856;9.088;2023-04-05T10:30:35;5.47;;;4.40;;
42600;SDS011;28229;48.856;9.088;2023-04-05T10:36:15;4.97;;;4.27;;
42600;SDS011;28229;48.856;9.088;2023-04-05T10:41:35;4.23;;;3.90;;
42600;SDS011;28229;48.856;9.088;2023-04-05T10:44:08;5.70;;;4.03;;
42600;SDS011;28229;48.856;9.088;2023-04-05T10:46:36;5.20;;;4.60;;
42600;SDS011;28229;48.856;9.088;2023-04-05T10:51:32;4.90;;;3.90;;
42600;SDS011;28229;48.856;9.088;2023-04-05T10:53:59;5.97;;;4.33;;
42600;SDS011;28229;48.856;9.088;2023-04-05T10:56:26;5.20;;;4.47;;
42600;SDS011;28229;48.856;9.088;2023-04-05T10:58:52;6.40;;;3.90;;
42600;SDS011;28229;48.856;9.088;2023-04-05T11:01:20;4.30;;;4.00;;
42600;SDS011;28229;48.856;9.088;2023-04-05T11:03:47;4.47;;;4.07;;
42600;SDS011;28229;48.856;9.088;2023-04-05T11:08:46;4.80;;;4.33;;
42600;SDS011;28229;48.856;9.088;2023-04-05T11:11:14;5.87;;;4.27;;
42600;SDS011;28229;48.856;9.088;2023-04-05T11:14:00;4.97;;;4.33;;
42600;SDS011;28229;48.856;9.088;2023-04-05T11:16:45;4.80;;;4.30;;
42600;SDS011;28229;48.856;9.088;2023-04-05T11:19:15;4.83;;;4.33;;
42600;SDS011;28229;48.856;9.088;2023-04-05T11:21:41;5.03;;;4.40;;
42600;SDS011;28229;48.856;9.088;2023-04-05T11:24:10;5.27;;;4.77;;
42600;SDS011;28229;48.856;9.088;2023-04-05T11:29:06;5.30;;;4.80;;
42600;SDS011;28229;48.856;9.088;2023-04-05T11:31:32;6.50;;;5.30;;
42600;SDS011;28229;48.856;9.088;2023-04-05T11:33:59;5.73;;;4.37;;
42600;SDS011;28229;48.856;9.088;2023-04-05T11:36:38;6.07;;;5.27;;
42600;SDS011;28229;48.856;9.088;2023-04-05T11:41:46;6.90;;;5.77;;
42600;SDS011;28229;48.856;9.088;2023-04-05T11:44:19;6.27;;;5.27;;
42600;SDS011;28229;48.856;9.088;2023-04-05T11:46:47;6.33;;;5.13;;
42600;SDS011;28229;48.856;9.088;2023-04-05T11:49:13;4.97;;;4.57;;
42600;SDS011;28229;48.856;9.088;2023-04-05T11:51:40;5.30;;;4.80;;
42600;SDS011;28229;48.856;9.088;2023-04-05T11:54:14;4.80;;;4.30;;
42600;SDS011;28229;48.856;9.088;2023-04-05T11:56:52;5.97;;;4.50;;
42600;SDS011;28229;48.856;9.088;2023-04-05T11:59:19;5.93;;;5.00;;
42600;SDS011;28229;48.856;9.088;2023-04-05T12:01:46;5.50;;;5.00;;
42600;SDS011;28229;48.856;9.088;2023-04-05T12:04:12;4.60;;;4.20;;
42600;SDS011;28229;48.856;9.088;2023-04-05T12:06:39;4.97;;;4.47;;
42600;SDS011;28229;48.856;9.088;2023-04-05T12:09:08;5.37;;;4.37;;
42600;SDS011;28229;48.856;9.088;2023-04-05T12:11:34;4.90;;;4.50;;
42600;SDS011;28229;48.856;9.088;2023-04-05T12:14:00;5.20;;;4.63;;
42600;SDS011;28229;48.856;9.088;2023-04-05T12:16:27;5.50;;;5.00;;
42600;SDS011;28229;48.856;9.088;2023-04-05T12:18:54;4.83;;;4.37;;
42600;SDS011;28229;48.856;9.088;2023-04-05T12:21:22;5.47;;;4.30;;
42600;SDS011;28229;48.856;9.088;2023-04-05T12:23:49;4.77;;;4.20;;
42600;SDS011;28229;48.856;9.088;2023-04-05T12:26:16;5.53;;;4.97;;
42600;SDS011;28229;48.856;9.088;2023-04-05T12:31:37;4.30;;;4.00;;
42600;SDS011;28229;48.856;9.088;2023-04-05T12:34:08;6.00;;;4.20;;
42600;SDS011;28229;48.856;9.088;2023-04-05T12:36:35;5.20;;;4.63;;
42600;SDS011;28229;48.856;9.088;2023-04-05T12:39:04;4.97;;;4.57;;
42600;SDS011;28229;48.856;9.088;2023-04-05T12:41:32;5.20;;;4.33;;
42600;SDS011;28229;48.856;9.088;2023-04-05T12:44:03;4.47;;;4.17;;
42600;SDS011;28229;48.856;9.088;2023-04-05T12:46:37;5.20;;;4.70;;
42600;SDS011;28229;48.856;9.088;2023-04-05T12:49:14;4.60;;;4.20;;
42600;SDS011;28229;48.856;9.088;2023-04-05T12:51:42;4.93;;;4.30;;
42600;SDS011;28229;48.856;9.088;2023-04-05T12:54:21;4.73;;;4.20;;
42600;SDS011;28229;48.856;9.088;2023-04-05T12:56:49;5.73;;;4.23;;
42600;SDS011;28229;48.856;9.088;2023-04-05T12:59:17;4.70;;;4.20;;
42600;SDS011;28229;48.856;9.088;2023-04-05T13:01:43;5.50;;;4.10;;
42600;SDS011;28229;48.856;9.088;2023-04-05T13:04:09;4.50;;;4.10;;
42600;SDS011;28229;48.856;9.088;2023-04-05T13:06:35;4.83;;;4.40;;
42600;SDS011;28229;48.856;9.088;2023-04-05T13:09:02;4.70;;;4.30;;
42600;SDS011;28229;48.856;9.088;2023-04-05T13:11:28;4.60;;;4.27;;
42600;SDS011;28229;48.856;9.088;2023-04-05T13:13:55;4.40;;;4.00;;
42600;SDS011;28229;48.856;9.088;2023-04-05T13:16:22;4.00;;;3.60;;
42600;SDS011;28229;48.856;9.088;2023-04-05T13:18:48;4.30;;;3.90;;
42600;SDS011;28229;48.856;9.088;2023-04-05T13:21:14;4.90;;;4.10;;
42600;SDS011;28229;48.856;9.088;2023-04-05T13:23:40;4.33;;;3.90;;
42600;SDS011;28229;48.856;9.088;2023-04-05T13:26:07;4.43;;;4.03;;
42600;SDS011;28229;48.856;9.088;2023-04-05T13:28:33;4.07;;;3.67;;
42600;SDS011;28229;48.856;9.088;2023-04-05T13:31:01;4.70;;;4.30;;
42600;SDS011;28229;48.856;9.088;2023-04-05T13:33:28;4.70;;;4.23;;
42600;SDS011;28229;48.856;9.088;2023-04-05T13:35:54;5.10;;;4.10;;
42600;SDS011;28229;48.856;9.088;2023-04-05T13:38:20;6.47;;;4.90;;
42600;SDS011;28229;48.856;9.088;2023-04-05T13:40:46;4.70;;;4.13;;
42600;SDS011;28229;48.856;9.088;2023-04-05T13:43:12;4.57;;;4.17;;
42600;SDS011;28229;48.856;9.088;2023-04-05T13:45:38;7.50;;;5.00;;
42600;SDS011;28229;48.856;9.088;2023-04-05T13:48:11;4.90;;;4.50;;
42600;SDS011;28229;48.856;9.088;2023-04-05T13:50:37;4.47;;;4.10;;
42600;SDS011;28229;48.856;9.088;2023-04-05T13:53:04;4.77;;;4.30;;
42600;SDS011;28229;48.856;9.088;2023-04-05T13:55:30;4.87;;;4.40;;
42600;SDS011;28229;48.856;9.088;2023-04-05T13:57:56;4.73;;;4.23;;
42600;SDS011;28229;48.856;9.088;2023-04-05T14:00:23;5.77;;;5.00;;
42600;SDS011;28229;48.856;9.088;2023-04-05T14:02:50;4.80;;;4.27;;
42600;SDS011;28229;48.856;9.088;2023-04-05T14:05:16;4.07;;;3.77;;
42600;SDS011;28229;48.856;9.088;2023-04-05T14:07:43;4.37;;;3.90;;
42600;SDS011;28229;48.856;9.088;2023-04-05T14:10:09;4.97;;;4.37;;
42600;SDS011;28229;48.856;9.088;2023-04-05T14:12:36;4.47;;;4.00;;
42600;SDS011;28229;48.856;9.088;2023-04-05T14:15:02;4.00;;;3.70;;
42600;SDS011;28229;48.856;9.088;2023-04-05T14:17:29;5.03;;;4.53;;
42600;SDS011;28229;48.856;9.088;2023-04-05T14:19:55;9.17;;;6.93;;
42600;SDS011;28229;48.856;9.088;2023-04-05T14:22:21;17.13;;;13.27;;
42600;SDS011;28229;48.856;9.088;2023-04-05T14:24:47;19.73;;;14.03;;
42600;SDS011;28229;48.856;9.088;2023-04-05T14:27:14;9.03;;;6.33;;
42600;SDS011;28229;48.856;9.088;2023-04-05T14:29:40;4.47;;;3.90;;
42600;SDS011;28229;48.856;9.088;2023-04-05T14:32:06;4.10;;;3.70;;
42600;SDS011;28229;48.856;9.088;2023-04-05T14:34:32;4.20;;;3.80;;
42600;SDS011;28229;48.856;9.088;2023-04-05T14:36:59;4.30;;;3.90;;
42600;SDS011;28229;48.856;9.088;2023-04-05T14:39:26;5.27;;;3.83;;
42600;SDS011;28229;48.856;9.088;2023-04-05T14:41:53;5.80;;;4.03;;
42600;SDS011;28229;48.856;9.088;2023-04-05T14:44:19;4.87;;;4.40;;
42600;SDS011;28229;48.856;9.088;2023-04-05T14:46:46;5.80;;;4.70;;
42600;SDS011;28229;48.856;9.088;2023-04-05T14:49:13;5.00;;;4.50;;
42600;SDS011;28229;48.856;9.088;2023-04-05T14:51:39;5.30;;;4.63;;
42600;SDS011;28229;48.856;9.088;2023-04-05T14:54:05;6.30;;;4.97;;
42600;SDS011;28229;48.856;9.088;2023-04-05T14:56:31;7.67;;;5.33;;
42600;SDS011;28229;48.856;9.088;2023-04-05T14:58:58;8.03;;;4.93;;
42600;SDS011;28229;48.856;9.088;2023-04-05T15:01:24;5.23;;;4.73;;
42600;SDS011;28229;48.856;9.088;2023-04-05T15:03:50;6.43;;;4.43;;
42600;SDS011;28229;48.856;9.088;2023-04-05T15:06:16;5.33;;;4.83;;
42600;SDS011;28229;48.856;9.088;2023-04-05T15:08:43;6.33;;;4.40;;
42600;SDS011;28229;48.856;9.088;2023-04-05T15:11:09;5.20;;;4.70;;
42600;SDS011;28229;48.856;9.088;2023-04-05T15:13:35;4.77;;;4.37;;
42600;SDS011;28229;48.856;9.088;2023-04-05T15:16:02;4.93;;;4.53;;
42600;SDS011;28229;48.856;9.088;2023-04-05T15:18:28;4.87;;;4.40;;
42600;SDS011;28229;48.856;9.088;2023-04-05T15:20:56;5.20;;;4.70;;
42600;SDS011;28229;48.856;9.088;2023-04-05T15:23:23;5.27;;;4.87;;
42600;SDS011;28229;48.856;9.088;2023-04-05T15:25:49;5.30;;;4.40;;
42600;SDS011;28229;48.856;9.088;2023-04-05T15:28:15;5.30;;;4.50;;
42600;SDS011;28229;48.856;9.088;2023-04-05T15:30:41;7.50;;;6.73;;